sensor_id;sensor_type;location;lat;lon;timestamp;P1;durP1;ratioP1;P2;durP2;ratioP2
49183;SDS011;35021;49.214;12.270;2022-10-12T00:02:04;6.07;;;3.95;;
49183;SDS011;35021;49.214;12.270;2022-10-12T00:04:31;4.38;;;3.40;;
49183;SDS011;35021;49.214;12.270;2022-10-12T00:06:58;5.28;;;3.88;;
49183;SDS011;35021;49.214;12.270;2022-10-12T00:09:25;5.85;;;3.58;;
49183;SDS011;35021;49.214;12.270;2022-10-12T00:11:52;4.78;;;3.88;;
49183;SDS011;35021;49.214;12.270;2022-10-12T00:14:18;5.07;;;3.65;;
49183;SDS011;35021;49.214;12.270;2022-10-12T00:16:45;4.47;;;3.58;;
49183;SDS011;35021;49.214;12.270;2022-10-12T00:19:12;5.97;;;3.47;;
49183;SDS011;35021;49.214;12.270;2022-10-12T00:21:39;4.65;;;3.42;;
49183;SDS011;35021;49.214;12.270;2022-10-12T00:24:06;5.43;;;3.92;;
49183;SDS011;35021;49.214;12.270;2022-10-12T00:26:34;5.78;;;3.90;;
49183;SDS011;35021;49.214;12.270;2022-10-12T00:29:01;7.68;;;4.50;;
49183;SDS011;35021;49.214;12.270;2022-10-12T00:31:29;5.75;;;3.67;;
49183;SDS011;35021;49.214;12.270;2022-10-12T00:33:58;5.40;;;3.70;;
49183;SDS011;35021;49.214;12.270;2022-10-12T00:36:28;5.05;;;3.70;;
49183;SDS011;35021;49.214;12.270;2022-10-12T00:38:57;4.78;;;4.00;;
49183;SDS011;35021;49.214;12.270;2022-10-12T00:41:26;4.00;;;3.70;;
49183;SDS011;35021;49.214;12.270;2022-10-12T00:43:55;4.32;;;3.60;;
49183;SDS011;35021;49.214;12.270;2022-10-12T00:46:34;4.25;;;3.70;;
49183;SDS011;35021;49.214;12.270;2022-10-12T00:51:43;7.45;;;3.90;;
49183;SDS011;35021;49.214;12.270;2022-10-12T00:54:14;4.65;;;3.65;;
49183;SDS011;35021;49.214;12.270;2022-10-12T00:56:45;5.03;;;4.22;;
49183;SDS011;35021;49.214;12.270;2022-10-12T00:59:18;6.15;;;3.85;;
49183;SDS011;35021;49.214;12.270;2022-10-12T01:01:50;4.10;;;3.75;;
49183;SDS011;35021;49.214;12.270;2022-10-12T01:04:17;8.02;;;4.03;;
49183;SDS011;35021;49.214;12.270;2022-10-12T01:06:44;5.07;;;3.58;;
49183;SDS011;35021;49.214;12.270;2022-10-12T01:09:11;5.75;;;3.90;;
49183;SDS011;35021;49.214;12.270;2022-10-12T01:11:39;5.05;;;3.95;;
49183;SDS011;35021;49.214;12.270;2022-10-12T01:14:06;4.43;;;4.03;;
49183;SDS011;35021;49.214;12.270;2022-10-12T01:22:40;5.20;;;3.88;;
49183;SDS011;35021;49.214;12.270;2022-10-12T01:31:04;4.57;;;3.95;;
49183;SDS011;35021;49.214;12.270;2022-10-12T01:33:42;6.35;;;4.00;;
49183;SDS011;35021;49.214;12.270;2022-10-12T01:36:18;5.93;;;4.13;;
49183;SDS011;35021;49.214;12.270;2022-10-12T01:38:54;6.45;;;4.15;;
49183;SDS011;35021;49.214;12.270;2022-10-12T01:41:30;6.40;;;3.95;;
49183;SDS011;35021;49.214;12.270;2022-10-12T01:44:02;7.80;;;4.22;;
49183;SDS011;35021;49.214;12.270;2022-10-12T01:48:57;5.20;;;4.10;;
49183;SDS011;35021;49.214;12.270;2022-10-12T01:54:09;5.25;;;3.55;;
49183;SDS011;35021;49.214;12.270;2022-10-12T01:57:03;6.60;;;4.13;;
49183;SDS011;35021;49.214;12.270;2022-10-12T02:07:48;5.35;;;3.88;;
49183;SDS011;35021;49.214;12.270;2022-10-12T02:10:26;4.43;;;3.42;;
49183;SDS011;35021;49.214;12.270;2022-10-12T02:12:58;4.72;;;4.13;;
49183;SDS011;35021;49.214;12.270;2022-10-12T02:15:28;4.75;;;3.75;;
49183;SDS011;35021;49.214;12.270;2022-10-12T02:17:56;6.47;;;4.00;;
49183;SDS011;35021;49.214;12.270;2022-10-12T02:20:24;4.47;;;3.92;;
49183;SDS011;35021;49.214;12.270;2022-10-12T02:22:52;6.45;;;4.13;;
49183;SDS011;35021;49.214;12.270;2022-10-12T02:25:21;4.30;;;3.42;;
49183;SDS011;35021;49.214;12.270;2022-10-12T02:27:56;6.75;;;4.05;;
49183;SDS011;35021;49.214;12.270;2022-10-12T02:30:28;5.43;;;4.28;;
49183;SDS011;35021;49.214;12.270;2022-10-12T02:33:02;7.50;;;3.92;;
49183;SDS011;35021;49.214;12.270;2022-10-12T02:35:37;6.40;;;3.85;;
49183;SDS011;35021;49.214;12.270;2022-10-12T02:38:11;6.38;;;4.18;;
49183;SDS011;35021;49.214;12.270;2022-10-12T02:41:00;6.55;;;4.22;;
49183;SDS011;35021;49.214;12.270;2022-10-12T02:43:38;4.28;;;3.67;;
49183;SDS011;35021;49.214;12.270;2022-10-12T02:46:09;7.10;;;3.92;;
49183;SDS011;35021;49.214;12.270;2022-10-12T02:48:37;5.18;;;4.22;;
49183;SDS011;35021;49.214;12.270;2022-10-12T02:51:06;5.80;;;4.47;;
49183;SDS011;35021;49.214;12.270;2022-10-12T02:53:34;9.35;;;4.53;;
49183;SDS011;35021;49.214;12.270;2022-10-12T02:56:06;4.53;;;4.13;;
49183;SDS011;35021;49.214;12.270;2022-10-12T02:58:38;6.45;;;3.95;;
49183;SDS011;35021;49.214;12.270;2022-10-12T03:01:05;5.28;;;4.18;;
49183;SDS011;35021;49.214;12.270;2022-10-12T03:03:32;4.10;;;3.70;;
49183;SDS011;35021;49.214;12.270;2022-10-12T03:05:59;5.72;;;3.78;;
49183;SDS011;35021;49.214;12.270;2022-10-12T03:08:26;5.28;;;4.00;;
49183;SDS011;35021;49.214;12.270;2022-10-12T03:10:53;4.18;;;3.70;;
49183;SDS011;35021;49.214;12.270;2022-10-12T03:13:20;6.20;;;4.50;;
49183;SDS011;35021;49.214;12.270;2022-10-12T03:15:47;7.50;;;4.28;;
49183;SDS011;35021;49.214;12.270;2022-10-12T03:18:14;5.45;;;4.47;;
49183;SDS011;35021;49.214;12.270;2022-10-12T03:20:40;6.68;;;4.30;;
49183;SDS011;35021;49.214;12.270;2022-10-12T03:23:07;5.90;;;4.25;;
49183;SDS011;35021;49.214;12.270;2022-10-12T03:25:34;6.43;;;4.28;;
49183;SDS011;35021;49.214;12.270;2022-10-12T03:28:01;5.60;;;4.03;;
49183;SDS011;35021;49.214;12.270;2022-10-12T03:30:28;4.50;;;4.10;;
49183;SDS011;35021;49.214;12.270;2022-10-12T03:32:54;8.55;;;4.13;;
49183;SDS011;35021;49.214;12.270;2022-10-12T03:35:21;4.80;;;4.28;;
49183;SDS011;35021;49.214;12.270;2022-10-12T03:37:48;5.43;;;3.80;;
49183;SDS011;35021;49.214;12.270;2022-10-12T03:40:15;5.53;;;4.05;;
49183;SDS011;35021;49.214;12.270;2022-10-12T03:42:42;7.38;;;4.35;;
49183;SDS011;35021;49.214;12.270;2022-10-12T03:45:09;5.95;;;4.47;;
49183;SDS011;35021;49.214;12.270;2022-10-12T03:47:36;6.07;;;4.85;;
49183;SDS011;35021;49.214;12.270;2022-10-12T03:50:04;4.63;;;4.10;;
49183;SDS011;35021;49.214;12.270;2022-10-12T03:52:31;5.18;;;4.22;;
49183;SDS011;35021;49.214;12.270;2022-10-12T03:54:58;4.78;;;4.38;;
49183;SDS011;35021;49.214;12.270;2022-10-12T03:57:25;6.78;;;4.38;;
49183;SDS011;35021;49.214;12.270;2022-10-12T03:59:52;5.03;;;4.47;;
49183;SDS011;35021;49.214;12.270;2022-10-12T04:02:18;8.02;;;4.90;;
49183;SDS011;35021;49.214;12.270;2022-10-12T04:04:45;5.95;;;4.18;;
49183;SDS011;35021;49.214;12.270;2022-10-12T04:07:14;5.15;;;4.65;;
49183;SDS011;35021;49.214;12.270;2022-10-12T04:09:40;5.03;;;4.03;;
49183;SDS011;35021;49.214;12.270;2022-10-12T04:12:07;4.70;;;4.22;;
49183;SDS011;35021;49.214;12.270;2022-10-12T04:14:34;6.82;;;4.07;;
49183;SDS011;35021;49.214;12.270;2022-10-12T04:17:01;4.95;;;4.10;;
49183;SDS011;35021;49.214;12.270;2022-10-12T04:19:29;6.85;;;4.40;;
49183;SDS011;35021;49.214;12.270;2022-10-12T04:21:56;7.15;;;4.50;;
49183;SDS011;35021;49.214;12.270;2022-10-12T04:24:22;5.47;;;4.72;;
49183;SDS011;35021;49.214;12.270;2022-10-12T04:26:49;5.30;;;4.13;;
49183;SDS011;35021;49.214;12.270;2022-10-12T04:29:16;6.28;;;4.25;;
49183;SDS011;35021;49.214;12.270;2022-10-12T04:31:43;6.75;;;4.50;;
49183;SDS011;35021;49.214;12.270;2022-10-12T04:34:10;6.03;;;4.32;;
49183;SDS011;35021;49.214;12.270;2022-10-12T04:36:37;5.20;;;4.60;;
49183;SDS011;35021;49.214;12.270;2022-10-12T04:39:04;9.48;;;4.63;;
49183;SDS011;35021;49.214;12.270;2022-10-12T04:41:31;6.57;;;4.32;;
49183;SDS011;35021;49.214;12.270;2022-10-12T04:43:58;6.10;;;4.13;;
49183;SDS011;35021;49.214;12.270;2022-10-12T04:46:25;8.90;;;4.63;;
49183;SDS011;35021;49.214;12.270;2022-10-12T04:48:52;6.07;;;4.43;;
49183;SDS011;35021;49.214;12.270;2022-10-12T04:51:18;7.30;;;4.70;;
49183;SDS011;35021;49.214;12.270;2022-10-12T04:53:45;6.40;;;4.18;;
49183;SDS011;35021;49.214;12.270;2022-10-12T04:56:12;5.97;;;4.60;;
49183;SDS011;35021;49.214;12.270;2022-10-12T04:58:39;5.32;;;4.15;;
49183;SDS011;35021;49.214;12.270;2022-10-12T05:01:06;5.75;;;4.55;;
49183;SDS011;35021;49.214;12.270;2022-10-12T05:03:32;6.80;;;4.40;;
49183;SDS011;35021;49.214;12.270;2022-10-12T05:06:06;7.03;;;4.13;;
49183;SDS011;35021;49.214;12.270;2022-10-12T05:08:33;5.28;;;3.85;;
49183;SDS011;35021;49.214;12.270;2022-10-12T05:11:00;5.05;;;4.20;;
49183;SDS011;35021;49.214;12.270;2022-10-12T05:13:27;6.90;;;3.80;;
49183;SDS011;35021;49.214;12.270;2022-10-12T05:15:55;5.13;;;4.40;;
49183;SDS011;35021;49.214;12.270;2022-10-12T05:18:22;5.05;;;3.80;;
49183;SDS011;35021;49.214;12.270;2022-10-12T05:20:49;6.97;;;3.80;;
49183;SDS011;35021;49.214;12.270;2022-10-12T05:23:22;7.00;;;4.40;;
49183;SDS011;35021;49.214;12.270;2022-10-12T05:25:49;9.23;;;4.72;;
49183;SDS011;35021;49.214;12.270;2022-10-12T05:28:16;5.57;;;4.18;;
49183;SDS011;35021;49.214;12.270;2022-10-12T05:30:42;6.75;;;3.95;;
49183;SDS011;35021;49.214;12.270;2022-10-12T05:33:09;5.18;;;3.97;;
49183;SDS011;35021;49.214;12.270;2022-10-12T05:35:36;6.80;;;3.88;;
49183;SDS011;35021;49.214;12.270;2022-10-12T05:38:03;6.18;;;3.63;;
49183;SDS011;35021;49.214;12.270;2022-10-12T05:40:30;7.90;;;4.30;;
49183;SDS011;35021;49.214;12.270;2022-10-12T05:42:57;9.20;;;4.15;;
49183;SDS011;35021;49.214;12.270;2022-10-12T05:45:23;6.20;;;4.00;;
49183;SDS011;35021;49.214;12.270;2022-10-12T05:47:50;6.88;;;3.75;;
49183;SDS011;35021;49.214;12.270;2022-10-12T05:50:17;7.53;;;4.30;;
49183;SDS011;35021;49.214;12.270;2022-10-12T05:52:44;4.78;;;3.90;;
49183;SDS011;35021;49.214;12.270;2022-10-12T05:55:11;7.25;;;3.67;;
49183;SDS011;35021;49.214;12.270;2022-10-12T05:57:38;10.95;;;4.13;;
49183;SDS011;35021;49.214;12.270;2022-10-12T06:00:06;7.70;;;4.40;;
49183;SDS011;35021;49.214;12.270;2022-10-12T06:02:34;6.90;;;3.92;;
49183;SDS011;35021;49.214;12.270;2022-10-12T06:05:01;4.63;;;3.95;;
49183;SDS011;35021;49.214;12.270;2022-10-12T06:07:29;6.47;;;3.67;;
49183;SDS011;35021;49.214;12.270;2022-10-12T06:09:55;5.93;;;4.03;;
49183;SDS011;35021;49.214;12.270;2022-10-12T06:12:22;5.13;;;3.92;;
49183;SDS011;35021;49.214;12.270;2022-10-12T06:14:49;5.80;;;3.80;;
49183;SDS011;35021;49.214;12.270;2022-10-12T06:17:17;6.45;;;4.13;;
49183;SDS011;35021;49.214;12.270;2022-10-12T06:19:44;5.57;;;4.28;;
49183;SDS011;35021;49.214;12.270;2022-10-12T06:22:12;4.72;;;4.13;;
49183;SDS011;35021;49.214;12.270;2022-10-12T06:24:39;5.80;;;3.65;;
49183;SDS011;35021;49.214;12.270;2022-10-12T06:27:06;7.18;;;3.95;;
49183;SDS011;35021;49.214;12.270;2022-10-12T06:29:32;6.78;;;4.32;;
49183;SDS011;35021;49.214;12.270;2022-10-12T06:32:01;5.85;;;3.92;;
49183;SDS011;35021;49.214;12.270;2022-10-12T06:34:27;9.48;;;4.38;;
49183;SDS011;35021;49.214;12.270;2022-10-12T06:36:54;5.78;;;4.18;;
49183;SDS011;35021;49.214;12.270;2022-10-12T06:39:27;5.38;;;3.92;;
49183;SDS011;35021;49.214;12.270;2022-10-12T06:41:53;7.68;;;4.45;;
49183;SDS011;35021;49.214;12.270;2022-10-12T06:44:20;6.43;;;4.03;;
49183;SDS011;35021;49.214;12.270;2022-10-12T06:46:48;5.00;;;3.83;;
49183;SDS011;35021;49.214;12.270;2022-10-12T06:49:15;8.27;;;4.18;;
49183;SDS011;35021;49.214;12.270;2022-10-12T06:51:43;4.47;;;3.83;;
49183;SDS011;35021;49.214;12.270;2022-10-12T06:54:09;4.68;;;3.90;;
49183;SDS011;35021;49.214;12.270;2022-10-12T06:56:37;5.30;;;4.30;;
49183;SDS011;35021;49.214;12.270;2022-10-12T06:59:05;5.05;;;3.95;;
49183;SDS011;35021;49.214;12.270;2022-10-12T07:01:32;5.68;;;4.40;;
49183;SDS011;35021;49.214;12.270;2022-10-12T07:03:59;4.97;;;4.35;;
49183;SDS011;35021;49.214;12.270;2022-10-12T07:06:26;6.28;;;4.10;;
49183;SDS011;35021;49.214;12.270;2022-10-12T07:08:53;5.53;;;4.30;;
49183;SDS011;35021;49.214;12.270;2022-10-12T07:11:20;7.18;;;4.55;;
49183;SDS011;35021;49.214;12.270;2022-10-12T07:13:47;6.70;;;4.40;;
49183;SDS011;35021;49.214;12.270;2022-10-12T07:16:14;4.72;;;4.28;;
49183;SDS011;35021;49.214;12.270;2022-10-12T07:18:41;8.52;;;4.82;;
49183;SDS011;35021;49.214;12.270;2022-10-12T07:21:08;6.07;;;4.35;;
49183;SDS011;35021;49.214;12.270;2022-10-12T07:23:35;5.38;;;4.50;;
49183;SDS011;35021;49.214;12.270;2022-10-12T07:26:10;5.28;;;4.63;;
49183;SDS011;35021;49.214;12.270;2022-10-12T07:28:37;5.85;;;4.50;;
49183;SDS011;35021;49.214;12.270;2022-10-12T07:31:05;7.18;;;4.50;;
49183;SDS011;35021;49.214;12.270;2022-10-12T07:33:33;7.13;;;4.32;;
49183;SDS011;35021;49.214;12.270;2022-10-12T07:36:01;5.82;;;4.95;;
49183;SDS011;35021;49.214;12.270;2022-10-12T07:38:47;7.80;;;4.90;;
49183;SDS011;35021;49.214;12.270;2022-10-12T07:41:15;7.03;;;4.75;;
49183;SDS011;35021;49.214;12.270;2022-10-12T07:43:42;6.13;;;4.72;;
49183;SDS011;35021;49.214;12.270;2022-10-12T07:46:09;6.75;;;4.55;;
49183;SDS011;35021;49.214;12.270;2022-10-12T07:48:36;9.93;;;5.10;;
49183;SDS011;35021;49.214;12.270;2022-10-12T07:51:06;9.13;;;5.00;;
49183;SDS011;35021;49.214;12.270;2022-10-12T07:53:35;6.50;;;5.10;;
49183;SDS011;35021;49.214;12.270;2022-10-12T07:56:04;6.50;;;4.40;;
49183;SDS011;35021;49.214;12.270;2022-10-12T07:58:32;7.13;;;4.60;;
49183;SDS011;35021;49.214;12.270;2022-10-12T08:01:06;6.28;;;4.25;;
49183;SDS011;35021;49.214;12.270;2022-10-12T08:03:34;6.32;;;4.47;;
49183;SDS011;35021;49.214;12.270;2022-10-12T08:06:11;5.93;;;4.10;;
49183;SDS011;35021;49.214;12.270;2022-10-12T08:08:40;5.68;;;3.70;;
49183;SDS011;35021;49.214;12.270;2022-10-12T08:11:07;6.43;;;4.55;;
49183;SDS011;35021;49.214;12.270;2022-10-12T08:13:35;6.45;;;4.32;;
49183;SDS011;35021;49.214;12.270;2022-10-12T08:16:03;13.02;;;5.38;;
49183;SDS011;35021;49.214;12.270;2022-10-12T08:18:31;6.63;;;4.40;;
49183;SDS011;35021;49.214;12.270;2022-10-12T08:20:58;5.75;;;3.92;;
49183;SDS011;35021;49.214;12.270;2022-10-12T08:23:26;5.80;;;4.10;;
49183;SDS011;35021;49.214;12.270;2022-10-12T08:25:54;10.18;;;4.65;;
49183;SDS011;35021;49.214;12.270;2022-10-12T08:28:22;6.80;;;4.47;;
49183;SDS011;35021;49.214;12.270;2022-10-12T08:30:50;5.95;;;4.32;;
49183;SDS011;35021;49.214;12.270;2022-10-12T08:33:18;7.30;;;3.95;;
49183;SDS011;35021;49.214;12.270;2022-10-12T08:35:45;10.35;;;4.85;;
49183;SDS011;35021;49.214;12.270;2022-10-12T08:38:13;7.95;;;4.38;;
49183;SDS011;35021;49.214;12.270;2022-10-12T08:40:43;6.85;;;4.30;;
49183;SDS011;35021;49.214;12.270;2022-10-12T08:45:58;6.40;;;4.07;;
49183;SDS011;35021;49.214;12.270;2022-10-12T08:48:32;5.80;;;4.30;;
49183;SDS011;35021;49.214;12.270;2022-10-12T08:51:21;6.03;;;3.80;;
49183;SDS011;35021;49.214;12.270;2022-10-12T08:56:21;7.07;;;4.50;;
49183;SDS011;35021;49.214;12.270;2022-10-12T08:58:48;6.30;;;3.95;;
49183;SDS011;35021;49.214;12.270;2022-10-12T09:06:59;7.25;;;3.85;;
49183;SDS011;35021;49.214;12.270;2022-10-12T09:14:55;6.82;;;3.83;;
49183;SDS011;35021;49.214;12.270;2022-10-12T09:17:28;5.35;;;3.90;;
49183;SDS011;35021;49.214;12.270;2022-10-12T09:20:17;5.90;;;3.78;;
49183;SDS011;35021;49.214;12.270;2022-10-12T09:25:41;6.78;;;3.97;;
49183;SDS011;35021;49.214;12.270;2022-10-12T09:28:43;8.48;;;4.10;;
49183;SDS011;35021;49.214;12.270;2022-10-12T09:33:40;8.95;;;4.15;;
49183;SDS011;35021;49.214;12.270;2022-10-12T09:36:15;4.60;;;3.53;;
49183;SDS011;35021;49.214;12.270;2022-10-12T09:38:47;6.95;;;3.75;;
49183;SDS011;35021;49.214;12.270;2022-10-12T09:41:20;4.70;;;3.55;;
49183;SDS011;35021;49.214;12.270;2022-10-12T09:43:55;7.10;;;4.10;;
49183;SDS011;35021;49.214;12.270;2022-10-12T09:46:28;6.25;;;3.85;;
49183;SDS011;35021;49.214;12.270;2022-10-12T09:49:02;7.65;;;4.05;;
49183;SDS011;35021;49.214;12.270;2022-10-12T09:51:29;6.18;;;3.53;;
49183;SDS011;35021;49.214;12.270;2022-10-12T09:53:58;5.22;;;3.40;;
49183;SDS011;35021;49.214;12.270;2022-10-12T09:59:06;5.57;;;3.53;;
49183;SDS011;35021;49.214;12.270;2022-10-12T10:04:42;4.72;;;3.08;;
49183;SDS011;35021;49.214;12.270;2022-10-12T10:15:25;4.72;;;3.40;;
49183;SDS011;35021;49.214;12.270;2022-10-12T10:18:05;5.43;;;3.00;;
49183;SDS011;35021;49.214;12.270;2022-10-12T10:20:52;6.28;;;3.40;;
49183;SDS011;35021;49.214;12.270;2022-10-12T10:25:57;6.78;;;3.45;;
49183;SDS011;35021;49.214;12.270;2022-10-12T10:28:27;6.00;;;3.80;;
49183;SDS011;35021;49.214;12.270;2022-10-12T10:30:59;6.13;;;3.60;;
49183;SDS011;35021;49.214;12.270;2022-10-12T10:33:34;4.88;;;3.33;;
49183;SDS011;35021;49.214;12.270;2022-10-12T10:41:24;4.65;;;3.67;;
49183;SDS011;35021;49.214;12.270;2022-10-12T10:43:54;5.07;;;3.75;;
49183;SDS011;35021;49.214;12.270;2022-10-12T10:46:22;5.35;;;3.40;;
49183;SDS011;35021;49.214;12.270;2022-10-12T10:48:52;5.53;;;3.75;;
49183;SDS011;35021;49.214;12.270;2022-10-12T10:54:27;5.97;;;3.15;;
49183;SDS011;35021;49.214;12.270;2022-10-12T10:57:12;5.32;;;3.33;;
49183;SDS011;35021;49.214;12.270;2022-10-12T10:59:58;4.50;;;3.38;;
49183;SDS011;35021;49.214;12.270;2022-10-12T11:02:55;5.93;;;3.00;;
49183;SDS011;35021;49.214;12.270;2022-10-12T11:05:34;5.28;;;3.80;;
49183;SDS011;35021;49.214;12.270;2022-10-12T11:08:08;4.15;;;3.40;;
49183;SDS011;35021;49.214;12.270;2022-10-12T11:13:37;5.03;;;3.63;;
49183;SDS011;35021;49.214;12.270;2022-10-12T11:18:49;5.70;;;3.42;;
49183;SDS011;35021;49.214;12.270;2022-10-12T11:21:28;4.60;;;3.40;;
49183;SDS011;35021;49.214;12.270;2022-10-12T11:24:03;5.30;;;3.63;;
49183;SDS011;35021;49.214;12.270;2022-10-12T11:26:39;4.15;;;3.40;;
49183;SDS011;35021;49.214;12.270;2022-10-12T11:29:37;5.13;;;3.30;;
49183;SDS011;35021;49.214;12.270;2022-10-12T11:32:05;6.43;;;3.30;;
49183;SDS011;35021;49.214;12.270;2022-10-12T11:34:59;5.63;;;3.40;;
49183;SDS011;35021;49.214;12.270;2022-10-12T11:37:36;5.90;;;3.17;;
49183;SDS011;35021;49.214;12.270;2022-10-12T11:40:17;4.80;;;3.53;;
49183;SDS011;35021;49.214;12.270;2022-10-12T11:43:10;4.60;;;3.08;;
49183;SDS011;35021;49.214;12.270;2022-10-12T11:45:42;4.47;;;3.33;;
49183;SDS011;35021;49.214;12.270;2022-10-12T11:48:25;4.40;;;2.97;;
49183;SDS011;35021;49.214;12.270;2022-10-12T11:50:57;5.93;;;3.40;;
49183;SDS011;35021;49.214;12.270;2022-10-12T11:56:17;4.55;;;3.50;;
49183;SDS011;35021;49.214;12.270;2022-10-12T11:58:57;4.65;;;3.20;;
49183;SDS011;35021;49.214;12.270;2022-10-12T12:01:48;5.28;;;3.58;;
49183;SDS011;35021;49.214;12.270;2022-10-12T12:04:34;5.03;;;3.65;;
49183;SDS011;35021;49.214;12.270;2022-10-12T12:13:07;3.92;;;3.30;;
49183;SDS011;35021;49.214;12.270;2022-10-12T12:18:19;5.03;;;3.25;;
49183;SDS011;35021;49.214;12.270;2022-10-12T12:28:43;6.75;;;3.50;;
49183;SDS011;35021;49.214;12.270;2022-10-12T12:31:15;6.28;;;4.03;;
49183;SDS011;35021;49.214;12.270;2022-10-12T12:33:59;4.43;;;3.10;;
49183;SDS011;35021;49.214;12.270;2022-10-12T12:36:37;6.97;;;3.67;;
49183;SDS011;35021;49.214;12.270;2022-10-12T12:39:07;4.32;;;3.00;;
49183;SDS011;35021;49.214;12.270;2022-10-12T12:42:00;7.18;;;3.22;;
49183;SDS011;35021;49.214;12.270;2022-10-12T12:50:40;7.22;;;3.58;;
49183;SDS011;35021;49.214;12.270;2022-10-12T12:53:16;4.50;;;3.20;;
49183;SDS011;35021;49.214;12.270;2022-10-12T12:56:02;4.68;;;3.22;;
49183;SDS011;35021;49.214;12.270;2022-10-12T13:06:43;4.75;;;3.28;;
49183;SDS011;35021;49.214;12.270;2022-10-12T13:15:00;4.05;;;2.72;;
49183;SDS011;35021;49.214;12.270;2022-10-12T13:20:21;6.50;;;3.35;;
49183;SDS011;35021;49.214;12.270;2022-10-12T13:22:52;4.85;;;2.85;;
49183;SDS011;35021;49.214;12.270;2022-10-12T13:25:42;6.22;;;3.38;;
49183;SDS011;35021;49.214;12.270;2022-10-12T13:28:23;6.40;;;2.70;;
49183;SDS011;35021;49.214;12.270;2022-10-12T13:31:01;4.38;;;2.90;;
49183;SDS011;35021;49.214;12.270;2022-10-12T13:36:24;4.88;;;2.90;;
49183;SDS011;35021;49.214;12.270;2022-10-12T13:38:57;5.10;;;2.95;;
49183;SDS011;35021;49.214;12.270;2022-10-12T13:41:32;4.38;;;2.70;;
49183;SDS011;35021;49.214;12.270;2022-10-12T13:44:00;5.05;;;3.03;;
49183;SDS011;35021;49.214;12.270;2022-10-12T13:49:30;5.45;;;2.80;;
49183;SDS011;35021;49.214;12.270;2022-10-12T13:54:37;4.80;;;2.88;;
49183;SDS011;35021;49.214;12.270;2022-10-12T13:57:51;4.47;;;2.95;;
49183;SDS011;35021;49.214;12.270;2022-10-12T13:59:59;4.47;;;2.90;;
49183;SDS011;35021;49.214;12.270;2022-10-12T14:02:30;5.13;;;3.10;;
49183;SDS011;35021;49.214;12.270;2022-10-12T14:04:59;4.72;;;2.78;;
49183;SDS011;35021;49.214;12.270;2022-10-12T14:07:30;4.60;;;2.63;;
49183;SDS011;35021;49.214;12.270;2022-10-12T14:10:05;5.05;;;3.00;;
49183;SDS011;35021;49.214;12.270;2022-10-12T14:12:42;5.95;;;3.28;;
49183;SDS011;35021;49.214;12.270;2022-10-12T14:15:11;6.25;;;2.88;;
49183;SDS011;35021;49.214;12.270;2022-10-12T14:17:40;6.93;;;2.70;;
49183;SDS011;35021;49.214;12.270;2022-10-12T14:20:43;4.32;;;3.00;;
49183;SDS011;35021;49.214;12.270;2022-10-12T14:23:13;7.35;;;3.00;;
49183;SDS011;35021;49.214;12.270;2022-10-12T14:25:51;3.80;;;2.63;;
49183;SDS011;35021;49.214;12.270;2022-10-12T14:28:23;3.43;;;2.87;;
49183;SDS011;35021;49.214;12.270;2022-10-12T14:30:58;4.20;;;2.85;;
49183;SDS011;35021;49.214;12.270;2022-10-12T14:33:25;6.35;;;2.70;;
49183;SDS011;35021;49.214;12.270;2022-10-12T14:36:38;4.20;;;3.00;;
49183;SDS011;35021;49.214;12.270;2022-10-12T14:38:41;4.28;;;2.65;;
49183;SDS011;35021;49.214;12.270;2022-10-12T14:44:09;5.30;;;2.63;;
49183;SDS011;35021;49.214;12.270;2022-10-12T14:46:50;5.35;;;2.78;;
49183;SDS011;35021;49.214;12.270;2022-10-12T14:49:37;5.03;;;2.75;;
49183;SDS011;35021;49.214;12.270;2022-10-12T14:54:48;3.88;;;3.08;;
49183;SDS011;35021;49.214;12.270;2022-10-12T14:57:20;5.47;;;2.80;;
49183;SDS011;35021;49.214;12.270;2022-10-12T14:59:48;4.50;;;2.72;;
49183;SDS011;35021;49.214;12.270;2022-10-12T15:02:19;3.85;;;2.72;;
49183;SDS011;35021;49.214;12.270;2022-10-12T15:04:47;5.93;;;2.97;;
49183;SDS011;35021;49.214;12.270;2022-10-12T15:07:15;4.93;;;3.05;;
49183;SDS011;35021;49.214;12.270;2022-10-12T15:09:43;4.35;;;2.90;;
49183;SDS011;35021;49.214;12.270;2022-10-12T15:12:11;3.88;;;2.45;;
49183;SDS011;35021;49.214;12.270;2022-10-12T15:14:40;5.88;;;2.83;;
49183;SDS011;35021;49.214;12.270;2022-10-12T15:17:09;4.28;;;2.30;;
49183;SDS011;35021;49.214;12.270;2022-10-12T15:19:37;5.13;;;2.78;;
49183;SDS011;35021;49.214;12.270;2022-10-12T15:22:04;5.57;;;2.80;;
49183;SDS011;35021;49.214;12.270;2022-10-12T15:24:32;5.03;;;2.70;;
49183;SDS011;35021;49.214;12.270;2022-10-12T15:26:59;5.53;;;2.50;;
49183;SDS011;35021;49.214;12.270;2022-10-12T15:29:26;6.82;;;2.95;;
49183;SDS011;35021;49.214;12.270;2022-10-12T15:31:53;3.38;;;2.40;;
49183;SDS011;35021;49.214;12.270;2022-10-12T15:34:20;3.45;;;2.72;;
49183;SDS011;35021;49.214;12.270;2022-10-12T15:36:46;4.45;;;2.50;;
49183;SDS011;35021;49.214;12.270;2022-10-12T15:39:14;5.65;;;2.97;;
49183;SDS011;35021;49.214;12.270;2022-10-12T15:41:41;3.60;;;2.30;;
49183;SDS011;35021;49.214;12.270;2022-10-12T15:44:10;6.75;;;2.40;;
49183;SDS011;35021;49.214;12.270;2022-10-12T15:46:39;10.52;;;3.03;;
49183;SDS011;35021;49.214;12.270;2022-10-12T15:49:07;7.68;;;2.67;;
49183;SDS011;35021;49.214;12.270;2022-10-12T15:51:37;5.32;;;2.75;;
49183;SDS011;35021;49.214;12.270;2022-10-12T15:54:06;4.63;;;2.38;;
49183;SDS011;35021;49.214;12.270;2022-10-12T15:56:33;7.80;;;2.78;;
49183;SDS011;35021;49.214;12.270;2022-10-12T15:59:00;3.90;;;2.63;;
49183;SDS011;35021;49.214;12.270;2022-10-12T16:01:27;4.15;;;2.80;;
49183;SDS011;35021;49.214;12.270;2022-10-12T16:03:54;5.82;;;2.95;;
49183;SDS011;35021;49.214;12.270;2022-10-12T16:06:21;4.63;;;3.00;;
49183;SDS011;35021;49.214;12.270;2022-10-12T16:08:48;4.65;;;2.78;;
49183;SDS011;35021;49.214;12.270;2022-10-12T16:11:15;5.35;;;2.92;;
49183;SDS011;35021;49.214;12.270;2022-10-12T16:13:43;5.00;;;3.38;;
49183;SDS011;35021;49.214;12.270;2022-10-12T16:16:19;5.30;;;3.00;;
49183;SDS011;35021;49.214;12.270;2022-10-12T16:18:46;6.88;;;3.33;;
49183;SDS011;35021;49.214;12.270;2022-10-12T16:21:12;6.10;;;3.03;;
49183;SDS011;35021;49.214;12.270;2022-10-12T16:23:39;4.85;;;3.38;;
49183;SDS011;35021;49.214;12.270;2022-10-12T16:26:08;5.35;;;3.10;;
49183;SDS011;35021;49.214;12.270;2022-10-12T16:28:37;6.65;;;3.10;;
49183;SDS011;35021;49.214;12.270;2022-10-12T16:31:10;5.93;;;3.25;;
49183;SDS011;35021;49.214;12.270;2022-10-12T16:33:40;5.00;;;2.80;;
49183;SDS011;35021;49.214;12.270;2022-10-12T16:36:08;5.80;;;2.67;;
49183;SDS011;35021;49.214;12.270;2022-10-12T16:38:36;6.38;;;3.10;;
49183;SDS011;35021;49.214;12.270;2022-10-12T16:41:07;4.90;;;3.03;;
49183;SDS011;35021;49.214;12.270;2022-10-12T16:43:35;4.88;;;2.70;;
49183;SDS011;35021;49.214;12.270;2022-10-12T16:46:02;4.25;;;2.90;;
49183;SDS011;35021;49.214;12.270;2022-10-12T16:48:29;6.75;;;3.25;;
49183;SDS011;35021;49.214;12.270;2022-10-12T16:50:57;5.72;;;2.97;;
49183;SDS011;35021;49.214;12.270;2022-10-12T16:53:24;5.90;;;3.05;;
49183;SDS011;35021;49.214;12.270;2022-10-12T16:55:51;4.15;;;2.53;;
49183;SDS011;35021;49.214;12.270;2022-10-12T16:58:18;3.97;;;2.95;;
49183;SDS011;35021;49.214;12.270;2022-10-12T17:00:45;7.05;;;3.30;;
49183;SDS011;35021;49.214;12.270;2022-10-12T17:03:11;6.50;;;3.28;;
49183;SDS011;35021;49.214;12.270;2022-10-12T17:05:40;7.80;;;3.53;;
49183;SDS011;35021;49.214;12.270;2022-10-12T17:08:07;9.10;;;3.45;;
49183;SDS011;35021;49.214;12.270;2022-10-12T17:10:41;5.10;;;3.58;;